Time;durP1;ratioP1;P1;durP2;ratioP2;P2;SDS_P1;SDS_P2;PMS_P1;PMS_P2;Temp;Humidity;BMP_temperature;BMP_pressure;BME280_temperature;BME280_humidity;BME280_pressure;Samples;Min_cycle;Max_cycle;Signal;HPM_P1;HPM_P2
2022/04/02 00:01:39;;;;;;;5.72;2.47;;;11.10;99.90;;;;;;4950674;28;20042;-85
2022/04/02 00:08:14;;;;;;;8.75;2.50;;;11.10;99.90;;;;;;4903471;28;20067;-83
2022/04/02 00:11:28;;;;;;;5.72;2.47;;;11.10;99.90;;;;;;4945728;28;20042;-84
2022/04/02 00:14:48;;;;;;;7.35;2.85;;;11.10;99.90;;;;;;4952884;28;20204;-84
2022/04/02 00:18:01;;;;;;;7.43;2.30;;;11.10;99.90;;;;;;4936081;29;20043;-84
2022/04/02 00:20:33;;;;;;;9.70;2.47;;;11.20;99.90;;;;;;4936066;28;20606;-84
2022/04/02 00:26:02;;;;;;;5.75;2.58;;;11.20;99.90;;;;;;4987615;28;20571;-85
2022/04/02 00:28:38;;;;;;;6.63;2.28;;;11.20;99.90;;;;;;5015184;28;20037;-84
2022/04/02 00:31:05;;;;;;;9.18;2.13;;;11.20;99.90;;;;;;5015397;28;20093;-85
2022/04/02 00:33:54;;;;;;;7.70;2.45;;;11.20;99.90;;;;;;4996828;28;20026;-84
2022/04/02 00:41:08;;;;;;;11.02;2.28;;;11.20;99.90;;;;;;5005577;28;20068;-85
2022/04/02 00:47:12;;;;;;;8.70;2.63;;;11.10;99.90;;;;;;5013290;28;20065;-86
2022/04/02 00:53:45;;;;;;;7.70;2.45;;;11.10;99.90;;;;;;5014141;28;20033;-85
2022/04/02 01:07:01;;;;;;;7.00;2.17;;;10.90;99.90;;;;;;4884312;29;20084;-85
2022/04/02 02:59:36;;;;;;;7.57;2.10;;;10.20;99.90;;;;;;4989515;28;20033;-84
2022/04/02 03:02:11;;;;;;;7.10;2.17;;;10.10;99.90;;;;;;4986077;28;20038;-86
2022/04/02 03:05:47;;;;;;;8.60;2.20;;;10.00;99.90;;;;;;4989489;28;20437;-86
2022/04/02 03:08:31;;;;;;;8.35;1.65;;;10.00;99.90;;;;;;4947953;28;20054;-86
2022/04/02 03:11:44;;;;;;;;;;;;;;;;;;;;;
2022/04/02 03:14:54;;;;;;;;;;;;;;;;;;;;;
2022/04/02 03:17:38;;;;;;;9.20;1.90;;;9.80;99.90;;;;;;4987543;28;20000;-85
2022/04/02 04:10:56;;;;;;;16.13;3.47;;;9.60;99.90;;;;;;4986553;28;20041;-84
2022/04/02 04:52:28;;;;;;;;;;;9.00;99.90;;;;;;4923075;29;20399;-84
2022/04/02 05:12:36;;;;;;;9.77;2.13;;;9.20;99.90;;;;;;4933592;29;20072;-84
2022/04/02 05:25:14;;;;;;;9.00;2.40;;;9.20;99.90;;;;;;4915134;29;20047;-85
2022/04/02 05:27:44;;;;;;;8.68;2.67;;;9.20;99.90;;;;;;4950660;28;20732;-84
2022/04/02 05:33:38;;;;;;;12.35;2.80;;;9.30;99.90;;;;;;4990898;28;20045;-84
2022/04/02 05:36:15;;;;;;;16.60;3.22;;;9.30;99.90;;;;;;4993404;28;20046;-84
2022/04/02 05:41:33;;;;;;;11.52;3.55;;;9.30;99.90;;;;;;4991154;28;20508;-85
2022/04/02 05:44:01;;;;;;;14.00;2.85;;;9.30;99.90;;;;;;4992924;28;20405;-85
2022/04/02 05:47:21;;;;;;;7.30;2.42;;;9.30;99.90;;;;;;4993527;28;20628;-85
2022/04/02 05:57:06;;;;;;;9.63;3.00;;;9.30;99.90;;;;;;4925309;29;20083;-85
2022/04/02 06:00:26;;;;;;;9.25;2.25;;;9.30;99.90;;;;;;4907467;29;20567;-85
2022/04/02 06:09:51;;;;;;;11.85;2.78;;;9.40;99.90;;;;;;4895203;29;20066;-84
2022/04/02 06:15:53;;;;;;;11.35;2.72;;;9.30;99.90;;;;;;4894801;29;20530;-84
2022/04/02 06:18:31;;;;;;;12.10;2.67;;;9.20;99.90;;;;;;4894790;29;20203;-84
2022/04/02 06:21:03;;;;;;;12.00;2.90;;;9.10;99.90;;;;;;4917239;28;20122;-84
2022/04/02 06:23:29;;;;;;;14.25;3.55;;;9.10;99.90;;;;;;4943209;28;20043;-84
2022/04/02 06:26:04;;;;;;;10.13;2.58;;;9.20;99.90;;;;;;4942604;28;20117;-86
2022/04/02 06:28:53;;;;;;;7.90;2.63;;;9.20;99.90;;;;;;4939954;28;20054;-87
2022/04/02 06:31:27;;;;;;;18.70;3.20;;;9.20;99.90;;;;;;4973812;28;20490;-88
2022/04/02 06:34:14;;;;;;;17.48;3.20;;;9.20;99.90;;;;;;4976080;28;20026;-86
2022/04/02 06:36:39;;;;;;;11.70;3.45;;;9.20;99.90;;;;;;4991418;28;20053;-88
2022/04/02 06:39:23;;;;;;;10.65;4.38;;;9.10;99.90;;;;;;4978122;28;20088;-90
2022/04/02 06:41:49;;;;;;;13.50;3.10;;;9.10;99.90;;;;;;4976865;28;20042;-87
2022/04/02 06:44:16;;;;;;;13.27;3.20;;;9.10;99.90;;;;;;4979274;28;20080;-85
2022/04/02 06:46:47;;;;;;;12.40;3.33;;;9.00;99.90;;;;;;4975759;28;20037;-90
2022/04/02 06:50:04;;;;;;;12.50;2.72;;;9.00;99.90;;;;;;4994478;28;20041;-87
2022/04/02 06:52:39;;;;;;;8.95;2.92;;;9.00;99.90;;;;;;4961048;28;20046;-88
2022/04/02 06:55:13;;;;;;;11.48;2.58;;;9.10;99.90;;;;;;4972910;28;20051;-89
2022/04/02 06:58:07;;;;;;;10.13;2.88;;;9.10;99.90;;;;;;4976326;28;20037;-88
2022/04/02 07:00:52;;;;;;;10.80;3.38;;;9.20;99.90;;;;;;4980481;28;20034;-86
2022/04/02 07:03:22;;;;;;;10.48;2.78;;;9.30;99.90;;;;;;4995598;28;20446;-87
2022/04/02 07:05:51;;;;;;;11.43;2.90;;;9.40;99.90;;;;;;4982269;28;20031;-89
2022/04/02 07:08:27;;;;;;;14.00;3.33;;;9.40;99.90;;;;;;5001607;28;20396;-90
2022/04/02 07:10:52;;;;;;;14.07;4.43;;;9.40;99.90;;;;;;4986343;28;20030;-86
2022/04/02 07:13:18;;;;;;;17.45;7.85;;;9.50;99.90;;;;;;4971387;28;20041;-89
2022/04/02 07:15:44;;;;;;;19.05;4.72;;;9.60;99.90;;;;;;4992301;28;20064;-91
2022/04/02 07:18:16;;;;;;;15.68;7.13;;;9.60;99.90;;;;;;4981726;28;20022;-92
2022/04/02 07:20:48;;;;;;;19.48;6.47;;;9.60;99.90;;;;;;4985894;28;20038;-89
2022/04/02 07:23:21;;;;;;;16.20;8.65;;;9.70;99.90;;;;;;4980641;28;20027;-88
2022/04/02 07:25:50;;;;;;;21.27;10.60;;;9.70;99.90;;;;;;4998208;28;20034;-94
2022/04/02 07:28:43;;;;;;;16.83;9.30;;;9.70;99.90;;;;;;5000540;28;20038;-87
2022/04/02 07:31:12;;;;;;;;;;;9.70;99.90;;;;;;5007605;28;20025;-94
2022/04/02 07:33:44;;;;;;;14.07;3.17;;;9.60;99.90;;;;;;4996091;28;20471;-94
2022/04/02 07:36:35;;;;;;;10.35;3.05;;;9.70;99.90;;;;;;4991361;28;20046;-91
2022/04/02 07:39:32;;;;;;;10.80;3.97;;;9.70;99.90;;;;;;4995945;28;20030;-83
2022/04/02 07:42:26;;;;;;;13.43;5.65;;;9.90;99.90;;;;;;4989682;28;20041;-83
2022/04/02 07:45:53;;;;;;;7.53;2.60;;;10.00;99.90;;;;;;4980472;28;20014;-90
2022/04/02 07:48:30;;;;;;;8.43;3.13;;;10.10;99.90;;;;;;4957056;28;20097;-90
2022/04/02 07:51:04;;;;;;;8.27;2.05;;;9.90;99.90;;;;;;4966491;28;20042;-91
2022/04/02 07:53:41;;;;;;;8.63;1.83;;;9.80;99.90;;;;;;4996765;28;20512;-90
2022/04/02 07:56:13;;;;;;;9.57;2.60;;;9.60;99.90;;;;;;4994811;28;20085;-89
2022/04/02 07:58:51;;;;;;;8.45;3.03;;;9.50;99.90;;;;;;4987978;28;20030;-83
2022/04/02 08:01:21;;;;;;;15.73;2.28;;;9.70;99.90;;;;;;4998786;28;20088;-87
2022/04/02 08:03:48;;;;;;;7.05;2.50;;;9.80;99.90;;;;;;4992895;28;20023;-85
2022/04/02 08:06:14;;;;;;;7.43;2.03;;;9.90;99.90;;;;;;4994780;28;20023;-85
2022/04/02 08:08:42;;;;;;;9.90;4.03;;;10.00;99.90;;;;;;5000900;28;20030;-88
2022/04/02 08:11:34;;;;;;;14.35;7.13;;;10.20;99.90;;;;;;5001333;28;20038;-87
2022/04/02 08:14:04;;;;;;;14.48;7.30;;;10.30;99.90;;;;;;4998070;28;20042;-85
2022/04/02 08:16:32;;;;;;;12.85;6.03;;;10.40;99.90;;;;;;5005710;28;20117;-88
2022/04/02 08:19:01;;;;;;;12.13;4.32;;;10.50;99.90;;;;;;4994773;28;20027;-88
2022/04/02 08:21:27;;;;;;;12.80;7.20;;;10.60;99.90;;;;;;4994296;28;20097;-86
2022/04/02 08:23:56;;;;;;;12.18;3.50;;;10.70;99.90;;;;;;4992182;28;20490;-89
2022/04/02 08:26:47;;;;;;;9.25;3.30;;;10.70;99.90;;;;;;4998673;28;20131;-90
2022/04/02 08:29:50;;;;;;;9.73;2.65;;;10.70;99.90;;;;;;4979138;28;20035;-89
2022/04/02 08:32:31;;;;;;;7.95;3.17;;;10.70;99.90;;;;;;4967686;28;20054;-89
2022/04/02 08:35:11;;;;;;;9.52;2.75;;;10.70;99.90;;;;;;4979146;28;20041;-89
2022/04/02 08:37:42;;;;;;;9.07;3.13;;;10.70;99.90;;;;;;4979902;28;20069;-90
2022/04/02 08:40:39;;;;;;;7.65;2.78;;;10.70;99.90;;;;;;4992952;28;20030;-88
2022/04/02 08:43:04;;;;;;;12.20;3.00;;;10.80;99.90;;;;;;4988970;28;20032;-87
2022/04/02 08:45:43;;;;;;;7.80;2.90;;;10.90;99.90;;;;;;4978368;28;20516;-88
2022/04/02 08:48:26;;;;;;;17.85;3.80;;;11.10;99.90;;;;;;4967678;28;20031;-89
2022/04/02 08:51:05;;;;;;;12.93;3.20;;;11.20;99.90;;;;;;4993043;28;20087;-89
2022/04/02 08:53:48;;;;;;;14.90;2.95;;;11.30;99.90;;;;;;4981665;28;20038;-90
2022/04/02 08:56:20;;;;;;;;;;;11.30;99.90;;;;;;4982349;28;20395;-90
2022/04/02 08:58:59;;;;;;;8.45;2.45;;;11.40;99.90;;;;;;4984620;28;19994;-89
2022/04/02 09:02:03;;;;;;;8.65;2.50;;;11.40;99.90;;;;;;4971502;28;20030;-89
2022/04/02 09:05:20;;;;;;;8.68;3.03;;;11.40;99.90;;;;;;4986707;28;20034;-91
2022/04/02 09:08:30;;;;;;;9.75;3.08;;;11.40;99.90;;;;;;4903967;29;20017;-90
2022/04/02 09:11:21;;;;;;;5.95;2.38;;;11.20;99.90;;;;;;5004170;28;20041;-92
2022/04/02 09:13:50;;;;;;;15.43;3.13;;;11.30;99.90;;;;;;4982579;28;20080;-92
2022/04/02 09:16:36;;;;;;;11.57;2.33;;;11.20;99.90;;;;;;5003970;28;20214;-88
2022/04/02 09:19:30;;;;;;;10.55;2.50;;;11.00;99.90;;;;;;4986378;28;20041;-93
2022/04/02 09:22:02;;;;;;;12.13;2.10;;;10.80;99.90;;;;;;4986858;28;20027;-91
2022/04/02 09:25:06;;;;;;;8.25;2.10;;;10.60;99.90;;;;;;4995294;28;20027;-89
2022/04/02 09:27:55;;;;;;;8.70;1.80;;;10.60;99.90;;;;;;4992490;28;20041;-90
2022/04/02 09:30:52;;;;;;;7.20;2.13;;;10.80;99.90;;;;;;5003334;28;20041;-90
2022/04/02 09:33:36;;;;;;;7.78;2.05;;;10.90;99.90;;;;;;5009822;28;20030;-92
2022/04/02 09:36:33;;;;;;;6.57;1.80;;;11.00;99.90;;;;;;5002000;28;20066;-90
2022/04/02 09:38:59;;;;;;;9.15;2.15;;;11.10;99.90;;;;;;5007890;28;20033;-86
2022/04/02 09:41:56;;;;;;;12.13;2.45;;;11.10;99.90;;;;;;5028260;28;20022;-90
2022/04/02 09:44:58;;;;;;;6.97;1.80;;;11.60;99.90;;;;;;5012640;28;20030;-91
2022/04/02 09:48:08;;;;;;;7.88;1.90;;;11.80;99.90;;;;;;5029884;28;20026;-91
2022/04/02 09:50:37;;;;;;;9.93;2.47;;;11.70;99.90;;;;;;5005572;28;20022;-91
2022/04/02 09:53:38;;;;;;;9.93;2.05;;;11.80;99.90;;;;;;5003219;28;20033;-91
2022/04/02 09:56:34;;;;;;;10.25;2.55;;;11.90;99.90;;;;;;5005236;28;20076;-90
2022/04/02 09:59:25;;;;;;;7.57;2.08;;;12.40;99.90;;;;;;4979697;28;20034;-90
2022/04/02 10:02:13;;;;;;;5.30;2.00;;;12.50;99.90;;;;;;5020679;28;20030;-90
2022/04/02 10:04:58;;;;;;;14.95;2.53;;;12.90;99.90;;;;;;5011583;28;20033;-90
2022/04/02 10:07:53;;;;;;;8.50;2.10;;;13.30;99.90;;;;;;5002112;28;20030;-89
2022/04/02 10:10:27;;;;;;;8.20;2.63;;;13.80;99.90;;;;;;4987866;28;20177;-89
2022/04/02 10:12:58;;;;;;;4.93;2.05;;;14.00;99.90;;;;;;4991670;28;20061;-91
2022/04/02 10:15:28;;;;;;;8.50;2.97;;;13.90;99.90;;;;;;5022301;28;20073;-92
2022/04/02 10:18:11;;;;;;;15.90;2.85;;;13.90;99.90;;;;;;5001781;28;20033;-88
2022/04/02 10:38:50;;;;;;;7.35;2.55;;;14.50;99.90;;;;;;4922184;27;4812277;-92
2022/04/02 10:41:16;;;;;;;10.70;2.55;;;14.40;99.90;;;;;;5058602;28;20034;-86
2022/04/02 10:43:59;;;;;;;8.70;2.25;;;14.40;99.90;;;;;;5075557;28;20438;-94
2022/04/02 10:46:26;;;;;;;8.80;2.40;;;14.60;99.90;;;;;;5066631;28;20025;-93
2022/04/02 10:49:05;;;;;;;6.53;2.40;;;14.60;99.90;;;;;;5070311;28;20044;-93
2022/04/02 10:51:34;;;;;;;7.00;2.05;;;14.60;99.90;;;;;;5070410;28;20005;-93
2022/04/02 10:54:22;;;;;;;9.63;2.35;;;14.50;99.90;;;;;;5057558;28;20483;-92
2022/04/02 10:56:48;;;;;;;7.45;1.85;;;14.20;99.90;;;;;;5077602;28;20028;-92
2022/04/02 10:59:16;;;;;;;11.68;3.58;;;14.00;99.90;;;;;;5059874;28;20036;-92
2022/04/02 11:01:46;;;;;;;19.25;8.98;;;13.70;99.90;;;;;;5074994;28;20593;-91
2022/04/02 11:04:42;;;;;;;6.72;2.10;;;13.50;99.90;;;;;;5063167;28;20549;-91
2022/04/02 11:07:09;;;;;;;10.30;2.35;;;13.50;99.90;;;;;;5057358;28;20037;-93
2022/04/02 11:09:41;;;;;;;8.50;2.33;;;13.40;99.90;;;;;;5057312;28;20040;-94
2022/04/02 11:12:07;;;;;;;6.35;2.38;;;13.60;99.90;;;;;;5051640;28;20029;-93
2022/04/02 11:14:45;;;;;;;6.22;2.13;;;13.90;99.90;;;;;;5061371;28;20021;-92
2022/04/02 11:17:32;;;;;;;10.07;2.35;;;14.00;99.90;;;;;;5063674;28;20381;-93
2022/04/02 11:20:28;;;;;;;6.90;2.55;;;14.00;99.90;;;;;;5031174;28;20455;-92
2022/04/02 11:23:16;;;;;;;6.80;1.98;;;13.90;99.90;;;;;;5056796;28;20037;-93
2022/04/02 11:26:01;;;;;;;12.95;2.50;;;13.80;99.90;;;;;;5048928;28;20022;-92
2022/04/02 11:28:42;;;;;;;7.20;1.80;;;13.90;99.90;;;;;;5050969;28;20113;-93
2022/04/02 11:31:11;;;;;;;6.00;1.70;;;14.10;99.90;;;;;;5061212;28;20435;-91
2022/04/02 11:33:58;;;;;;;6.78;2.83;;;13.80;99.90;;;;;;5066425;28;20020;-91
2022/04/02 11:37:03;;;;;;;11.35;1.90;;;13.10;99.90;;;;;;5062213;28;20115;-93
2022/04/02 11:39:54;;;;;;;7.88;3.40;;;12.50;99.90;;;;;;5014286;28;20045;-91
2022/04/02 11:42:24;;;;;;;;;;;12.00;99.90;;;;;;5067647;28;20055;-91
2022/04/02 11:44:55;;;;;;;10.98;2.35;;;11.30;99.90;;;;;;5064395;28;19935;-92
2022/04/02 11:47:32;;;;;;;5.18;2.00;;;11.00;99.90;;;;;;5063623;28;20050;-90
2022/04/02 11:50:22;;;;;;;16.48;2.90;;;10.80;99.90;;;;;;5043864;28;20025;-92
2022/04/02 11:52:56;;;;;;;7.90;2.30;;;10.70;99.90;;;;;;5040012;28;20028;-91
2022/04/02 11:55:34;;;;;;;7.10;2.55;;;10.50;99.90;;;;;;5066003;28;20475;-92
2022/04/02 11:58:17;;;;;;;11.07;4.10;;;10.30;99.90;;;;;;5034817;28;20056;-95
2022/04/02 12:00:44;;;;;;;9.25;2.25;;;10.20;99.90;;;;;;5063898;28;20664;-91
2022/04/02 12:03:34;;;;;;;11.13;2.17;;;10.10;99.90;;;;;;5065733;28;20032;-91
2022/04/02 12:06:15;;;;;;;13.07;2.33;;;10.20;99.90;;;;;;5062464;28;20039;-89
2022/04/02 12:08:45;;;;;;;5.35;2.08;;;10.20;99.90;;;;;;5056329;28;20013;-92
2022/04/02 12:11:24;;;;;;;14.82;2.20;;;10.20;99.90;;;;;;5077405;28;20028;-88
2022/04/02 12:14:14;;;;;;;10.00;2.25;;;10.40;99.90;;;;;;5059492;28;20025;-91
2022/04/02 12:17:09;;;;;;;7.78;2.47;;;10.60;99.90;;;;;;5067746;28;20405;-91
2022/04/02 12:19:42;;;;;;;6.93;2.35;;;10.70;99.90;;;;;;5066508;28;20185;-89
2022/04/02 12:22:35;;;;;;;7.63;2.42;;;10.90;99.90;;;;;;5061138;28;20027;-89
2022/04/02 12:25:13;;;;;;;;;;;11.30;99.90;;;;;;5028913;28;20097;-92
2022/04/02 12:27:49;;;;;;;9.07;2.13;;;11.90;99.90;;;;;;5051935;28;19916;-90
2022/04/02 12:30:24;;;;;;;9.40;2.35;;;12.30;99.90;;;;;;5059992;28;20025;-92
2022/04/02 12:33:07;;;;;;;9.35;2.30;;;12.50;99.90;;;;;;5068032;28;20029;-92
2022/04/02 12:35:37;;;;;;;4.20;1.88;;;12.50;99.90;;;;;;5060652;28;20059;-90
2022/04/02 12:38:05;;;;;;;10.90;2.03;;;12.40;99.90;;;;;;5069985;28;20403;-91
2022/04/02 12:40:50;;;;;;;4.70;1.90;;;12.30;99.90;;;;;;5059267;28;20028;-90
2022/04/02 12:43:30;;;;;;;7.80;2.22;;;12.20;99.90;;;;;;5058626;28;20683;-91
2022/04/02 12:45:58;;;;;;;10.15;2.28;;;12.40;99.90;;;;;;5045965;28;20029;-92
2022/04/02 12:48:26;;;;;;;4.88;2.35;;;12.70;99.90;;;;;;5030072;28;20025;-91
2022/04/02 12:51:00;;;;;;;6.25;1.95;;;12.80;99.90;;;;;;5063667;28;20020;-90
2022/04/02 12:53:34;;;;;;;5.13;2.25;;;13.00;99.90;;;;;;5048681;28;20028;-92
2022/04/02 12:56:15;;;;;;;10.13;2.05;;;13.00;99.90;;;;;;5044964;28;20021;-91
2022/04/02 12:58:52;;;;;;;8.38;1.80;;;13.00;99.90;;;;;;5040689;28;20049;-91
2022/04/02 13:01:29;;;;;;;6.18;1.90;;;13.10;99.90;;;;;;5036203;28;20028;-85
2022/04/02 13:04:03;;;;;;;9.88;1.98;;;13.20;99.90;;;;;;5044262;28;20021;-92
2022/04/02 13:07:01;;;;;;;5.68;1.85;;;12.70;99.90;;;;;;5051673;28;20036;-91
2022/04/02 13:09:33;;;;;;;6.38;1.70;;;12.20;99.90;;;;;;5049970;28;20088;-90
2022/04/02 13:12:06;;;;;;;6.70;2.00;;;12.10;99.90;;;;;;5054528;28;20036;-90
2022/04/02 13:14:39;;;;;;;10.55;2.25;;;12.20;99.90;;;;;;5041933;28;20025;-90
2022/04/02 13:21:01;;;;;;;;;;;;;;;;;;;;;
2022/04/02 13:24:42;;;;;;;6.75;2.20;;;12.80;99.90;;;;;;5053575;28;20056;-92
2022/04/02 13:27:20;;;;;;;8.98;2.50;;;13.10;99.90;;;;;;5033469;28;20044;-94
2022/04/02 13:30:16;;;;;;;4.45;1.90;;;12.50;99.90;;;;;;5068569;28;20078;-93
2022/04/02 13:33:13;;;;;;;7.22;1.85;;;12.20;99.90;;;;;;5042889;28;20073;-93
2022/04/02 13:35:47;;;;;;;7.82;1.75;;;11.70;99.90;;;;;;5076606;28;20020;-90
2022/04/02 13:38:28;;;;;;;7.15;1.45;;;11.10;99.90;;;;;;5078069;28;20109;-87
2022/04/02 13:41:37;;;;;;;;;;;;;;;;;;;;;
2022/04/02 13:44:38;;;;;;;12.10;1.95;;;10.50;99.90;;;;;;5068657;28;20036;-91
2022/04/02 13:47:11;;;;;;;12.35;1.67;;;10.70;99.90;;;;;;5053221;28;20056;-90
2022/04/02 13:49:50;;;;;;;10.50;1.58;;;10.90;99.90;;;;;;5047129;28;20020;-91
2022/04/02 13:52:30;;;;;;;5.47;2.05;;;10.90;99.90;;;;;;5074781;28;20058;-89
2022/04/02 13:55:11;;;;;;;5.25;1.48;;;10.70;99.90;;;;;;5064690;28;20020;-93
2022/04/02 13:57:46;;;;;;;8.70;1.63;;;10.70;99.90;;;;;;5042578;28;20036;-91
2022/04/02 14:00:29;;;;;;;11.32;1.80;;;10.60;99.90;;;;;;5052207;28;20032;-92
2022/04/02 14:03:04;;;;;;;6.85;1.70;;;10.70;99.90;;;;;;5048022;28;20021;-92
2022/04/02 14:05:32;;;;;;;7.40;1.88;;;10.70;99.90;;;;;;5029893;28;20039;-88
2022/04/02 14:08:15;;;;;;;4.45;1.70;;;10.80;99.90;;;;;;5058839;28;20025;-89
2022/04/02 14:10:51;;;;;;;9.25;1.90;;;10.80;99.90;;;;;;5065176;28;20086;-91
2022/04/02 14:13:37;;;;;;;6.15;2.70;;;10.90;99.90;;;;;;5073089;28;20092;-90
2022/04/02 14:16:14;;;;;;;7.15;1.92;;;10.90;99.90;;;;;;5057118;28;20013;-92
2022/04/02 14:18:47;;;;;;;7.78;1.65;;;10.70;99.90;;;;;;5039847;28;20032;-90
2022/04/02 14:21:19;;;;;;;7.60;1.80;;;10.40;99.90;;;;;;5039389;28;20101;-92
2022/04/02 14:24:27;;;;;;;4.82;1.98;;;10.20;99.90;;;;;;5050609;28;20009;-92
2022/04/02 14:27:15;;;;;;;6.38;1.73;;;10.20;99.90;;;;;;4993167;28;20034;-92
2022/04/02 14:30:05;;;;;;;7.43;1.65;;;10.40;99.90;;;;;;5053211;28;20024;-91
2022/04/02 14:33:21;;;;;;;5.45;1.40;;;10.80;99.90;;;;;;5057370;28;20061;-90
2022/04/02 14:36:31;;;;;;;5.60;1.70;;;11.40;99.90;;;;;;5046522;28;20030;-90
2022/04/02 14:39:30;;;;;;;7.30;2.22;;;11.80;99.90;;;;;;5034482;28;20522;-90
2022/04/02 14:42:06;;;;;;;5.15;1.90;;;12.10;99.90;;;;;;5013059;28;20086;-90
2022/04/02 14:45:10;;;;;;;4.72;1.50;;;12.20;99.90;;;;;;5052439;28;20858;-90
2022/04/02 14:48:01;;;;;;;6.15;1.95;;;12.20;99.90;;;;;;5069616;28;20020;-91
2022/04/02 14:50:58;;;;;;;3.80;1.75;;;12.30;99.90;;;;;;5041685;28;20448;-91
2022/04/02 14:53:43;;;;;;;6.97;3.50;;;12.30;99.90;;;;;;5056519;28;20029;-88
2022/04/02 14:59:56;;;;;;;6.95;4.07;;;12.20;99.90;;;;;;5044295;28;20054;-92
2022/04/02 15:02:41;;;;;;;3.17;2.45;;;12.10;99.90;;;;;;5042286;28;20063;-91
2022/04/02 15:05:35;;;;;;;7.55;2.65;;;12.00;99.90;;;;;;5051561;28;20017;-90
2022/04/02 15:08:29;;;;;;;8.25;1.95;;;11.80;99.90;;;;;;5051085;28;20055;-90
2022/04/02 15:11:21;;;;;;;8.27;2.10;;;11.60;99.90;;;;;;5054371;28;20084;-89
2022/04/02 15:16:33;;;;;;;5.38;2.20;;;11.70;99.90;;;;;;2425751;22;20060;-90
2022/04/02 15:19:52;;;;;;;4.70;2.15;;;11.90;99.90;;;;;;5063607;28;20033;-90
2022/04/02 15:23:20;;;;;;;7.95;2.60;;;12.00;99.90;;;;;;5828378;22;20138;-88
2022/04/02 15:25:57;;;;;;;12.73;2.03;;;11.90;99.90;;;;;;5085079;28;20041;-86
2022/04/02 15:29:06;;;;;;;10.60;2.08;;;11.80;99.90;;;;;;5088104;28;20028;-86
2022/04/02 15:34:31;;;;;;;6.30;2.30;;;11.70;99.90;;;;;;5074323;23;20060;-85
2022/04/02 15:37:11;;;;;;;4.60;2.10;;;11.80;99.90;;;;;;5076053;28;20475;-90
2022/04/02 15:40:11;;;;;;;5.30;2.13;;;12.00;99.90;;;;;;5070644;28;20039;-85
2022/04/02 15:43:19;;;;;;;3.38;2.30;;;12.00;99.90;;;;;;5077507;28;20052;-90
2022/04/02 15:45:47;;;;;;;6.13;2.25;;;11.80;99.90;;;;;;5041125;28;20028;-89
2022/04/02 15:48:52;;;;;;;4.47;2.25;;;11.70;99.90;;;;;;5056138;28;20025;-88
2022/04/02 15:51:50;;;;;;;4.57;1.88;;;11.50;99.90;;;;;;5060177;28;20025;-90
2022/04/02 15:54:27;;;;;;;3.58;1.80;;;11.30;99.90;;;;;;5040539;28;20640;-88
2022/04/02 15:57:02;;;;;;;4.75;1.70;;;11.30;99.90;;;;;;5045995;28;20033;-84
2022/04/02 15:59:29;;;;;;;6.22;1.98;;;11.30;99.90;;;;;;5042922;28;20048;-87
2022/04/02 16:01:56;;;;;;;2.65;1.60;;;11.30;99.90;;;;;;5042895;28;20029;-85
2022/04/02 16:04:23;;;;;;;3.78;1.95;;;11.20;99.90;;;;;;5006787;28;20030;-86
2022/04/02 16:06:49;;;;;;;3.35;1.73;;;11.20;99.90;;;;;;5021621;28;20072;-86
2022/04/02 16:09:18;;;;;;;3.13;1.95;;;11.20;99.90;;;;;;5027665;28;20033;-86
2022/04/02 16:11:49;;;;;;;2.33;1.77;;;11.20;99.90;;;;;;5033719;28;20022;-87
2022/04/02 16:14:17;;;;;;;3.35;1.88;;;11.20;99.90;;;;;;5021081;28;20022;-86
2022/04/02 16:16:52;;;;;;;3.65;1.67;;;11.20;99.90;;;;;;5023946;28;20080;-86
2022/04/02 16:19:47;;;;;;;2.72;1.70;;;11.20;99.90;;;;;;5014973;28;20029;-85
2022/04/02 16:22:24;;;;;;;6.03;2.20;;;11.20;99.90;;;;;;5034434;28;20052;-87
2022/04/02 16:24:56;;;;;;;5.13;2.00;;;11.10;99.90;;;;;;5023389;28;20034;-85
2022/04/02 16:27:24;;;;;;;6.05;2.13;;;11.00;99.90;;;;;;5022071;28;20502;-87
2022/04/02 16:29:54;;;;;;;4.95;1.95;;;11.00;99.90;;;;;;5033795;28;20435;-86
2022/04/02 16:32:24;;;;;;;3.58;1.85;;;10.90;99.90;;;;;;5003118;28;20036;-86
2022/04/02 16:35:04;;;;;;;5.85;2.25;;;10.80;99.90;;;;;;5010221;28;20137;-88
2022/04/02 16:37:33;;;;;;;5.80;2.60;;;10.60;99.90;;;;;;5010038;28;20560;-86
2022/04/02 16:40:02;;;;;;;6.63;2.17;;;10.50;99.90;;;;;;5029801;28;20544;-86
2022/04/02 16:42:38;;;;;;;2.65;1.90;;;10.40;99.90;;;;;;5012358;28;20025;-86
2022/04/02 16:45:04;;;;;;;7.30;2.85;;;10.20;99.90;;;;;;5009246;28;20116;-85
2022/04/02 16:47:34;;;;;;;7.90;2.70;;;10.20;99.90;;;;;;5021637;28;20028;-87
2022/04/02 16:50:10;;;;;;;3.05;1.73;;;10.10;99.90;;;;;;5022003;28;20030;-86
2022/04/02 16:52:42;;;;;;;5.57;2.15;;;10.00;99.90;;;;;;5028294;28;20029;-86
2022/04/02 16:55:14;;;;;;;5.20;2.90;;;9.90;99.90;;;;;;5028634;28;20559;-87
2022/04/02 16:57:44;;;;;;;10.90;4.60;;;9.90;99.90;;;;;;5026511;28;20041;-87
2022/04/02 17:00:21;;;;;;;8.55;4.45;;;9.90;99.90;;;;;;5031999;28;20030;-87
2022/04/02 17:02:53;;;;;;;14.15;4.07;;;9.90;99.90;;;;;;5025775;28;20022;-86
2022/04/02 17:05:22;;;;;;;;;;;9.90;99.90;;;;;;5022413;28;20481;-86
2022/04/02 17:08:03;;;;;;;5.53;1.75;;;9.90;99.90;;;;;;5005743;28;19905;-85
2022/04/02 17:10:34;;;;;;;5.05;1.98;;;9.80;99.90;;;;;;5012707;28;20017;-87
2022/04/02 17:13:05;;;;;;;3.72;1.83;;;9.70;99.90;;;;;;5007822;28;20021;-87
2022/04/02 17:15:35;;;;;;;6.30;2.63;;;9.60;99.90;;;;;;5029759;28;20028;-86
2022/04/02 17:18:26;;;;;;;4.22;1.98;;;9.40;99.90;;;;;;5009417;28;20167;-86
2022/04/02 17:21:09;;;;;;;4.35;1.85;;;9.30;99.90;;;;;;5026793;28;20481;-86
2022/04/02 17:23:40;;;;;;;4.20;1.90;;;9.10;99.90;;;;;;5023411;28;20033;-86
2022/04/02 17:26:38;;;;;;;3.97;2.20;;;9.00;99.90;;;;;;5032858;28;20100;-84
2022/04/02 17:29:50;;;;;;;;;;;;;;;;;;;;;
2022/04/02 17:32:25;;;;;;;2.05;1.70;;;8.70;99.90;;;;;;5041911;28;20053;-86
2022/04/02 17:35:07;;;;;;;4.57;1.83;;;8.50;99.90;;;;;;5019617;28;20034;-86
2022/04/02 17:37:56;;;;;;;3.17;1.83;;;8.40;99.90;;;;;;5009647;28;20096;-86
2022/04/02 17:40:28;;;;;;;2.88;1.40;;;8.20;99.90;;;;;;5009574;28;20060;-87
2022/04/02 17:43:04;;;;;;;2.78;1.50;;;8.10;99.90;;;;;;5004628;28;20026;-89
2022/04/02 17:45:49;;;;;;;3.45;2.15;;;8.00;99.90;;;;;;5037047;28;20033;-88
2022/04/02 17:48:19;;;;;;;5.05;3.42;;;7.90;99.90;;;;;;5017989;28;20022;-86
2022/04/02 17:51:06;;;;;;;6.88;2.67;;;7.80;99.90;;;;;;5035258;28;20033;-87
2022/04/02 17:53:50;;;;;;;5.80;2.67;;;7.70;99.90;;;;;;5010879;28;20029;-84
2022/04/02 17:56:55;;;;;;;19.00;11.68;;;7.60;99.90;;;;;;5015539;28;20133;-86
2022/04/02 17:59:16;;;;;;;7.82;3.03;;;7.50;99.90;;;;;;5025328;28;20041;-87
2022/04/02 18:01:42;;;;;;;5.85;3.67;;;7.40;99.90;;;;;;5004582;28;20068;-84
2022/04/02 18:04:25;;;;;;;7.40;3.90;;;7.40;99.90;;;;;;5022619;28;20030;-86
2022/04/02 18:07:25;;;;;;;;;;;;;;;;;;;;;
2022/04/02 18:09:41;;;;;;;7.45;3.83;;;7.40;99.90;;;;;;5014889;28;20030;-86
2022/04/02 18:12:11;;;;;;;6.53;4.03;;;7.40;99.90;;;;;;5006335;28;20595;-86
2022/04/02 18:14:43;;;;;;;8.05;4.22;;;7.40;99.90;;;;;;5009825;28;20026;-86
2022/04/02 18:17:21;;;;;;;7.57;4.43;;;7.40;99.90;;;;;;5017542;28;20055;-90
2022/04/02 18:19:48;;;;;;;6.80;1.45;;;7.40;99.90;;;;;;5138382;23;20091;-89
2022/04/02 18:22:47;;;;;;;5.65;3.67;;;7.40;99.90;;;;;;5058922;28;20017;-88
2022/04/02 18:28:20;;;;;;;5.17;2.67;;;7.40;99.90;;;;;;5600428;22;20057;-88
2022/04/02 18:30:47;;;;;;;2.65;1.83;;;7.30;99.90;;;;;;5022498;28;20295;-85
2022/04/02 18:33:25;;;;;;;5.28;3.88;;;7.30;99.90;;;;;;5029909;28;20083;-89
2022/04/02 18:36:02;;;;;;;4.53;3.03;;;7.30;99.90;;;;;;5044724;28;20029;-89
2022/04/02 18:42:01;;;;;;;5.05;2.80;;;7.20;99.90;;;;;;5054358;23;20056;-89
2022/04/02 18:50:17;;;;;;;2.92;1.50;;;7.20;99.90;;;;;;5429797;23;20037;-88
2022/04/02 18:58:21;;;;;;;4.15;2.85;;;7.10;99.90;;;;;;5420535;22;20033;-86
2022/04/02 19:01:10;;;;;;;2.90;1.98;;;7.10;99.90;;;;;;5071646;22;20067;-91
2022/04/02 19:03:36;;;;;;;9.55;4.75;;;7.10;99.90;;;;;;5036546;28;20030;-89
2022/04/02 19:06:03;;;;;;;9.07;3.45;;;7.10;99.90;;;;;;5023284;28;20040;-91
2022/04/02 19:08:34;;;;;;;4.78;3.92;;;7.10;99.90;;;;;;5046366;28;20063;-89
2022/04/02 19:11:31;;;;;;;6.93;3.55;;;7.00;99.90;;;;;;5061974;28;20013;-92
2022/04/02 19:13:58;;;;;;;4.03;2.20;;;7.00;99.90;;;;;;5056100;28;20097;-89
2022/04/02 19:16:28;;;;;;;4.07;2.22;;;7.00;99.90;;;;;;5052356;28;20040;-92
2022/04/02 19:19:15;;;;;;;3.25;2.30;;;7.00;99.90;;;;;;5065415;28;20044;-92
2022/04/02 19:21:44;;;;;;;4.40;2.45;;;7.00;99.90;;;;;;5381703;22;20030;-87
2022/04/02 19:44:52;;;;;;;3.92;2.30;;;7.00;99.90;;;;;;4088485;23;20249;-89
2022/04/02 19:50:36;;;;;;;4.85;2.40;;;6.90;99.90;;;;;;5472695;23;20051;-90
2022/04/02 20:00:51;;;;;;;24.30;9.70;;;7.10;99.90;;;;;;5204852;23;20031;-87
2022/04/02 20:03:31;;;;;;;14.43;6.15;;;7.10;99.90;;;;;;4936697;28;20075;-90
2022/04/02 20:06:14;;;;;;;42.90;18.77;;;7.20;99.90;;;;;;4944003;28;20046;-89
2022/04/02 20:08:53;;;;;;;13.38;6.45;;;7.10;99.90;;;;;;4904487;29;20277;-90